sensor_id;sensor_type;location;lat;lon;timestamp;temperature;humidity
40374;DHT22;26079;45.958;12.492;2022-12-20T00:00:53;0.80;99.90
40374;DHT22;26079;45.958;12.492;2022-12-20T00:03:19;0.80;99.90
40374;DHT22;26079;45.958;12.492;2022-12-20T00:05:45;0.80;99.90
40374;DHT22;26079;45.958;12.492;2022-12-20T00:08:12;0.70;99.90
40374;DHT22;26079;45.958;12.492;2022-12-20T00:10:42;0.70;99.90
40374;DHT22;26079;45.958;12.492;2022-12-20T00:13:09;0.70;99.90
40374;DHT22;26079;45.958;12.492;2022-12-20T00:15:35;0.60;99.90
40374;DHT22;26079;45.958;12.492;2022-12-20T00:18:01;0.60;99.90
40374;DHT22;26079;45.958;12.492;2022-12-20T00:20:28;0.60;99.90
40374;DHT22;26079;45.958;12.492;2022-12-20T00:22:54;0.50;99.90
40374;DHT22;26079;45.958;12.492;2022-12-20T00:25:21;0.50;99.90
40374;DHT22;26079;45.958;12.492;2022-12-20T00:27:47;0.60;99.90
40374;DHT22;26079;45.958;12.492;2022-12-20T00:30:14;0.60;99.90
40374;DHT22;26079;45.958;12.492;2022-12-20T00:32:40;0.50;99.90
40374;DHT22;26079;45.958;12.492;2022-12-20T00:35:06;0.50;99.90
40374;DHT22;26079;45.958;12.492;2022-12-20T00:37:32;0.50;99.90
40374;DHT22;26079;45.958;12.492;2022-12-20T00:39:58;0.50;99.90
40374;DHT22;26079;45.958;12.492;2022-12-20T00:42:24;0.40;99.90
40374;DHT22;26079;45.958;12.492;2022-12-20T00:44:49;0.40;99.90
40374;DHT22;26079;45.958;12.492;2022-12-20T00:47:15;0.30;99.90
40374;DHT22;26079;45.958;12.492;2022-12-20T00:49:41;0.30;99.90
40374;DHT22;26079;45.958;12.492;2022-12-20T00:52:06;0.30;99.90
40374;DHT22;26079;45.958;12.492;2022-12-20T00:54:32;0.40;99.90
40374;DHT22;26079;45.958;12.492;2022-12-20T00:56:58;0.50;99.90
40374;DHT22;26079;45.958;12.492;2022-12-20T00:59:24;0.50;99.90
40374;DHT22;26079;45.958;12.492;2022-12-20T01:01:50;0.50;99.90
40374;DHT22;26079;45.958;12.492;2022-12-20T01:04:16;0.50;99.90
40374;DHT22;26079;45.958;12.492;2022-12-20T01:06:42;0.50;99.90
40374;DHT22;26079;45.958;12.492;2022-12-20T01:09:08;0.50;99.90
40374;DHT22;26079;45.958;12.492;2022-12-20T01:11:36;0.50;99.90
40374;DHT22;26079;45.958;12.492;2022-12-20T01:14:11;0.50;99.90
40374;DHT22;26079;45.958;12.492;2022-12-20T01:16:39;0.30;99.90
40374;DHT22;26079;45.958;12.492;2022-12-20T01:19:06;0.30;99.90
40374;DHT22;26079;45.958;12.492;2022-12-20T01:21:34;0.30;99.90
40374;DHT22;26079;45.958;12.492;2022-12-20T01:24:00;0.30;99.90
40374;DHT22;26079;45.958;12.492;2022-12-20T01:26:27;0.30;99.90
40374;DHT22;26079;45.958;12.492;2022-12-20T01:28:58;0.40;99.90
40374;DHT22;26079;45.958;12.492;2022-12-20T01:31:25;0.40;99.90
40374;DHT22;26079;45.958;12.492;2022-12-20T01:33:51;0.40;99.90
40374;DHT22;26079;45.958;12.492;2022-12-20T01:36:20;0.40;99.90
40374;DHT22;26079;45.958;12.492;2022-12-20T01:38:46;0.40;99.90
40374;DHT22;26079;45.958;12.492;2022-12-20T01:41:19;0.40;99.90
40374;DHT22;26079;45.958;12.492;2022-12-20T01:46:24;0.50;99.90
40374;DHT22;26079;45.958;12.492;2022-12-20T01:49:01;0.50;99.90
40374;DHT22;26079;45.958;12.492;2022-12-20T01:51:31;0.50;99.90
40374;DHT22;26079;45.958;12.492;2022-12-20T01:54:04;0.40;99.90
40374;DHT22;26079;45.958;12.492;2022-12-20T01:56:31;0.50;99.90
40374;DHT22;26079;45.958;12.492;2022-12-20T01:58:57;0.50;99.90
40374;DHT22;26079;45.958;12.492;2022-12-20T02:01:24;0.50;99.90
40374;DHT22;26079;45.958;12.492;2022-12-20T02:03:51;0.40;99.90
40374;DHT22;26079;45.958;12.492;2022-12-20T02:06:24;0.40;99.90
40374;DHT22;26079;45.958;12.492;2022-12-20T02:08:51;0.40;99.90
40374;DHT22;26079;45.958;12.492;2022-12-20T02:14:17;0.40;99.90
40374;DHT22;26079;45.958;12.492;2022-12-20T02:17:03;0.40;99.90
40374;DHT22;26079;45.958;12.492;2022-12-20T02:25:37;0.30;99.90
40374;DHT22;26079;45.958;12.492;2022-12-20T02:30:41;0.30;99.90
40374;DHT22;26079;45.958;12.492;2022-12-20T02:33:10;0.30;99.90
40374;DHT22;26079;45.958;12.492;2022-12-20T02:35:38;0.30;99.90
40374;DHT22;26079;45.958;12.492;2022-12-20T02:38:29;0.30;99.90
40374;DHT22;26079;45.958;12.492;2022-12-20T02:43:32;0.20;99.90
40374;DHT22;26079;45.958;12.492;2022-12-20T02:46:18;0.20;99.90
40374;DHT22;26079;45.958;12.492;2022-12-20T02:48:48;0.20;99.90
40374;DHT22;26079;45.958;12.492;2022-12-20T02:51:15;0.20;99.90
40374;DHT22;26079;45.958;12.492;2022-12-20T02:53:43;0.20;99.90
40374;DHT22;26079;45.958;12.492;2022-12-20T02:56:11;0.30;99.90
40374;DHT22;26079;45.958;12.492;2022-12-20T02:58:46;0.20;99.90
40374;DHT22;26079;45.958;12.492;2022-12-20T03:01:20;0.20;99.90
40374;DHT22;26079;45.958;12.492;2022-12-20T03:03:47;0.20;99.90
40374;DHT22;26079;45.958;12.492;2022-12-20T03:06:14;0.20;99.90
40374;DHT22;26079;45.958;12.492;2022-12-20T03:08:40;0.20;99.90
40374;DHT22;26079;45.958;12.492;2022-12-20T03:11:05;0.20;99.90
40374;DHT22;26079;45.958;12.492;2022-12-20T03:13:31;0.20;99.90
40374;DHT22;26079;45.958;12.492;2022-12-20T03:15:57;0.20;99.90
40374;DHT22;26079;45.958;12.492;2022-12-20T03:18:22;0.20;99.90
40374;DHT22;26079;45.958;12.492;2022-12-20T03:20:48;0.20;99.90
40374;DHT22;26079;45.958;12.492;2022-12-20T03:23:14;0.20;99.90
40374;DHT22;26079;45.958;12.492;2022-12-20T03:25:39;0.20;99.90
40374;DHT22;26079;45.958;12.492;2022-12-20T03:28:05;0.20;99.90
40374;DHT22;26079;45.958;12.492;2022-12-20T03:30:31;0.20;99.90
40374;DHT22;26079;45.958;12.492;2022-12-20T03:32:57;0.20;99.90
40374;DHT22;26079;45.958;12.492;2022-12-20T03:35:23;0.10;99.90
40374;DHT22;26079;45.958;12.492;2022-12-20T03:37:48;0.20;99.90
40374;DHT22;26079;45.958;12.492;2022-12-20T03:40:14;0.20;99.90
40374;DHT22;26079;45.958;12.492;2022-12-20T03:42:40;0.10;99.90
40374;DHT22;26079;45.958;12.492;2022-12-20T03:45:06;0.20;99.90
40374;DHT22;26079;45.958;12.492;2022-12-20T03:47:32;0.20;99.90
40374;DHT22;26079;45.958;12.492;2022-12-20T03:49:58;0.10;99.90
40374;DHT22;26079;45.958;12.492;2022-12-20T03:52:25;0.10;99.90
40374;DHT22;26079;45.958;12.492;2022-12-20T03:54:51;0.10;99.90
40374;DHT22;26079;45.958;12.492;2022-12-20T03:57:17;0.10;99.90
40374;DHT22;26079;45.958;12.492;2022-12-20T03:59:43;0.10;99.90
40374;DHT22;26079;45.958;12.492;2022-12-20T04:02:09;0.10;99.90
40374;DHT22;26079;45.958;12.492;2022-12-20T04:04:35;0.00;99.90
40374;DHT22;26079;45.958;12.492;2022-12-20T04:07:00;0.00;99.90
40374;DHT22;26079;45.958;12.492;2022-12-20T04:09:26;-0.10;99.90
40374;DHT22;26079;45.958;12.492;2022-12-20T04:11:52;-0.10;99.90
40374;DHT22;26079;45.958;12.492;2022-12-20T04:14:17;-0.10;99.90
40374;DHT22;26079;45.958;12.492;2022-12-20T04:16:43;-0.10;99.90
40374;DHT22;26079;45.958;12.492;2022-12-20T04:19:09;-0.10;99.90
40374;DHT22;26079;45.958;12.492;2022-12-20T04:21:36;-0.10;99.90
40374;DHT22;26079;45.958;12.492;2022-12-20T04:24:03;-0.10;99.90
40374;DHT22;26079;45.958;12.492;2022-12-20T04:26:29;-0.10;99.90
40374;DHT22;26079;45.958;12.492;2022-12-20T04:28:55;-0.20;99.90
40374;DHT22;26079;45.958;12.492;2022-12-20T04:31:20;-0.20;99.90
40374;DHT22;26079;45.958;12.492;2022-12-20T04:33:46;-0.20;99.90
40374;DHT22;26079;45.958;12.492;2022-12-20T04:36:13;-0.10;99.90
40374;DHT22;26079;45.958;12.492;2022-12-20T04:38:39;-0.10;99.90
40374;DHT22;26079;45.958;12.492;2022-12-20T04:41:04;-0.20;99.90
40374;DHT22;26079;45.958;12.492;2022-12-20T04:43:30;-0.20;99.90
40374;DHT22;26079;45.958;12.492;2022-12-20T04:45:56;-0.20;99.90
40374;DHT22;26079;45.958;12.492;2022-12-20T04:48:23;-0.20;99.90
40374;DHT22;26079;45.958;12.492;2022-12-20T04:50:52;-0.20;99.90
40374;DHT22;26079;45.958;12.492;2022-12-20T04:53:19;-0.20;99.90
40374;DHT22;26079;45.958;12.492;2022-12-20T04:56:04;-0.30;99.90
40374;DHT22;26079;45.958;12.492;2022-12-20T04:58:29;-0.30;99.90
40374;DHT22;26079;45.958;12.492;2022-12-20T05:00:55;-0.30;99.90
40374;DHT22;26079;45.958;12.492;2022-12-20T05:03:22;-0.30;99.90
40374;DHT22;26079;45.958;12.492;2022-12-20T05:05:48;-0.30;99.90
40374;DHT22;26079;45.958;12.492;2022-12-20T05:08:14;-0.30;99.90
40374;DHT22;26079;45.958;12.492;2022-12-20T05:10:40;-0.30;99.90
40374;DHT22;26079;45.958;12.492;2022-12-20T05:13:06;-0.30;99.90
40374;DHT22;26079;45.958;12.492;2022-12-20T05:15:32;-0.30;99.90
40374;DHT22;26079;45.958;12.492;2022-12-20T05:17:58;-0.30;99.90
40374;DHT22;26079;45.958;12.492;2022-12-20T05:20:28;-0.30;99.90
40374;DHT22;26079;45.958;12.492;2022-12-20T05:22:54;-0.20;99.90
40374;DHT22;26079;45.958;12.492;2022-12-20T05:25:49;-0.30;99.90
40374;DHT22;26079;45.958;12.492;2022-12-20T05:28:35;-0.20;99.90
40374;DHT22;26079;45.958;12.492;2022-12-20T05:31:01;-0.30;99.90
40374;DHT22;26079;45.958;12.492;2022-12-20T05:33:27;-0.30;99.90
40374;DHT22;26079;45.958;12.492;2022-12-20T05:35:54;-0.30;99.90
40374;DHT22;26079;45.958;12.492;2022-12-20T05:38:20;-0.30;99.90
40374;DHT22;26079;45.958;12.492;2022-12-20T05:40:47;-0.20;99.90
40374;DHT22;26079;45.958;12.492;2022-12-20T05:43:14;-0.30;99.90
40374;DHT22;26079;45.958;12.492;2022-12-20T05:45:43;-0.30;99.90
40374;DHT22;26079;45.958;12.492;2022-12-20T05:48:09;-0.30;99.90
40374;DHT22;26079;45.958;12.492;2022-12-20T05:50:35;-0.30;99.90
40374;DHT22;26079;45.958;12.492;2022-12-20T05:53:01;-0.30;99.90
40374;DHT22;26079;45.958;12.492;2022-12-20T05:55:26;-0.30;99.90
40374;DHT22;26079;45.958;12.492;2022-12-20T05:57:52;-0.30;99.90
40374;DHT22;26079;45.958;12.492;2022-12-20T06:00:18;-0.30;99.90
40374;DHT22;26079;45.958;12.492;2022-12-20T06:02:44;-0.30;99.90
40374;DHT22;26079;45.958;12.492;2022-12-20T06:05:09;-0.40;99.90
40374;DHT22;26079;45.958;12.492;2022-12-20T06:07:35;-0.40;99.90
40374;DHT22;26079;45.958;12.492;2022-12-20T06:10:00;-0.40;99.90
40374;DHT22;26079;45.958;12.492;2022-12-20T06:12:45;-0.40;99.90
40374;DHT22;26079;45.958;12.492;2022-12-20T06:15:11;-0.50;99.90
40374;DHT22;26079;45.958;12.492;2022-12-20T06:17:37;-0.50;99.90
40374;DHT22;26079;45.958;12.492;2022-12-20T06:20:03;-0.50;99.90
40374;DHT22;26079;45.958;12.492;2022-12-20T06:22:29;-0.50;99.90
40374;DHT22;26079;45.958;12.492;2022-12-20T06:24:55;-0.50;99.90
40374;DHT22;26079;45.958;12.492;2022-12-20T06:27:21;-0.50;99.90
40374;DHT22;26079;45.958;12.492;2022-12-20T06:29:47;-0.50;99.90
40374;DHT22;26079;45.958;12.492;2022-12-20T06:32:17;-0.50;99.90
40374;DHT22;26079;45.958;12.492;2022-12-20T06:34:42;-0.50;99.90
40374;DHT22;26079;45.958;12.492;2022-12-20T06:37:08;-0.50;99.90
40374;DHT22;26079;45.958;12.492;2022-12-20T06:39:34;-0.50;99.90
40374;DHT22;26079;45.958;12.492;2022-12-20T06:41:59;-0.50;99.90
40374;DHT22;26079;45.958;12.492;2022-12-20T06:44:25;-0.50;99.90
40374;DHT22;26079;45.958;12.492;2022-12-20T06:46:50;-0.50;99.90
40374;DHT22;26079;45.958;12.492;2022-12-20T06:49:16;-0.50;99.90
40374;DHT22;26079;45.958;12.492;2022-12-20T06:51:42;-0.50;99.90
40374;DHT22;26079;45.958;12.492;2022-12-20T06:54:07;-0.60;99.90
40374;DHT22;26079;45.958;12.492;2022-12-20T06:56:33;-0.60;99.90
40374;DHT22;26079;45.958;12.492;2022-12-20T06:58:59;-0.60;99.90
40374;DHT22;26079;45.958;12.492;2022-12-20T07:01:25;-0.60;99.90
40374;DHT22;26079;45.958;12.492;2022-12-20T07:03:51;-0.60;99.90
40374;DHT22;26079;45.958;12.492;2022-12-20T07:06:16;-0.60;99.90
40374;DHT22;26079;45.958;12.492;2022-12-20T07:08:42;-0.60;99.90
40374;DHT22;26079;45.958;12.492;2022-12-20T07:11:08;-0.50;99.90
40374;DHT22;26079;45.958;12.492;2022-12-20T07:13:34;-0.50;99.90
40374;DHT22;26079;45.958;12.492;2022-12-20T07:16:01;-0.40;99.90
40374;DHT22;26079;45.958;12.492;2022-12-20T07:18:27;-0.40;99.90
40374;DHT22;26079;45.958;12.492;2022-12-20T07:20:57;-0.40;99.90
40374;DHT22;26079;45.958;12.492;2022-12-20T07:23:23;-0.30;99.90
40374;DHT22;26079;45.958;12.492;2022-12-20T07:25:56;-0.30;99.90
40374;DHT22;26079;45.958;12.492;2022-12-20T07:28:22;-0.20;99.90
40374;DHT22;26079;45.958;12.492;2022-12-20T07:30:48;-0.20;99.90
40374;DHT22;26079;45.958;12.492;2022-12-20T07:33:14;-0.20;99.90
40374;DHT22;26079;45.958;12.492;2022-12-20T07:35:40;-0.20;99.90
40374;DHT22;26079;45.958;12.492;2022-12-20T07:38:05;0.00;99.90
40374;DHT22;26079;45.958;12.492;2022-12-20T07:40:31;0.10;99.90
40374;DHT22;26079;45.958;12.492;2022-12-20T07:42:56;0.10;99.90
40374;DHT22;26079;45.958;12.492;2022-12-20T07:45:22;0.10;99.90
40374;DHT22;26079;45.958;12.492;2022-12-20T07:47:48;0.10;99.90
40374;DHT22;26079;45.958;12.492;2022-12-20T07:50:14;0.10;99.90
40374;DHT22;26079;45.958;12.492;2022-12-20T07:52:42;0.10;99.90
40374;DHT22;26079;45.958;12.492;2022-12-20T07:55:09;0.20;99.90
40374;DHT22;26079;45.958;12.492;2022-12-20T07:57:41;0.30;99.90
40374;DHT22;26079;45.958;12.492;2022-12-20T08:00:08;0.30;99.90
40374;DHT22;26079;45.958;12.492;2022-12-20T08:02:39;0.40;99.90
40374;DHT22;26079;45.958;12.492;2022-12-20T08:05:07;0.40;99.90
40374;DHT22;26079;45.958;12.492;2022-12-20T08:07:36;0.50;99.90
40374;DHT22;26079;45.958;12.492;2022-12-20T08:10:05;0.60;99.90
40374;DHT22;26079;45.958;12.492;2022-12-20T08:12:32;0.60;99.90
40374;DHT22;26079;45.958;12.492;2022-12-20T08:14:57;0.70;99.90
40374;DHT22;26079;45.958;12.492;2022-12-20T08:17:24;0.70;99.90
40374;DHT22;26079;45.958;12.492;2022-12-20T08:19:50;0.70;99.90
40374;DHT22;26079;45.958;12.492;2022-12-20T08:22:19;0.80;99.90
40374;DHT22;26079;45.958;12.492;2022-12-20T08:24:45;0.80;99.90
40374;DHT22;26079;45.958;12.492;2022-12-20T08:27:11;0.80;99.90
40374;DHT22;26079;45.958;12.492;2022-12-20T08:29:37;0.80;99.90
40374;DHT22;26079;45.958;12.492;2022-12-20T08:32:02;0.80;99.90
40374;DHT22;26079;45.958;12.492;2022-12-20T08:34:28;0.90;99.90
40374;DHT22;26079;45.958;12.492;2022-12-20T08:36:54;1.00;99.90
40374;DHT22;26079;45.958;12.492;2022-12-20T08:39:20;1.00;99.90
40374;DHT22;26079;45.958;12.492;2022-12-20T08:41:46;1.10;99.90
40374;DHT22;26079;45.958;12.492;2022-12-20T08:44:12;1.10;99.90
40374;DHT22;26079;45.958;12.492;2022-12-20T08:46:38;1.20;99.90
40374;DHT22;26079;45.958;12.492;2022-12-20T08:49:04;1.30;99.90
40374;DHT22;26079;45.958;12.492;2022-12-20T08:51:30;1.40;99.90
40374;DHT22;26079;45.958;12.492;2022-12-20T08:53:56;1.50;99.90
40374;DHT22;26079;45.958;12.492;2022-12-20T08:56:22;1.60;99.90
40374;DHT22;26079;45.958;12.492;2022-12-20T08:58:48;1.70;99.90
40374;DHT22;26079;45.958;12.492;2022-12-20T09:01:19;1.80;99.90
40374;DHT22;26079;45.958;12.492;2022-12-20T09:03:46;1.90;99.90
40374;DHT22;26079;45.958;12.492;2022-12-20T09:06:14;2.00;99.90
40374;DHT22;26079;45.958;12.492;2022-12-20T09:08:40;2.10;99.90
40374;DHT22;26079;45.958;12.492;2022-12-20T09:11:08;2.20;99.90
40374;DHT22;26079;45.958;12.492;2022-12-20T09:13:34;2.20;99.90
40374;DHT22;26079;45.958;12.492;2022-12-20T09:16:05;2.30;99.90
40374;DHT22;26079;45.958;12.492;2022-12-20T09:18:31;2.40;99.90
40374;DHT22;26079;45.958;12.492;2022-12-20T09:21:02;2.50;99.90
40374;DHT22;26079;45.958;12.492;2022-12-20T09:23:29;2.60;99.90
40374;DHT22;26079;45.958;12.492;2022-12-20T09:26:00;2.70;99.90
40374;DHT22;26079;45.958;12.492;2022-12-20T09:28:25;2.80;99.90
40374;DHT22;26079;45.958;12.492;2022-12-20T09:30:51;2.80;99.90
40374;DHT22;26079;45.958;12.492;2022-12-20T09:33:17;2.90;99.90
40374;DHT22;26079;45.958;12.492;2022-12-20T09:35:46;3.00;99.90
40374;DHT22;26079;45.958;12.492;2022-12-20T09:38:12;3.00;99.90
40374;DHT22;26079;45.958;12.492;2022-12-20T09:40:47;3.10;99.90
40374;DHT22;26079;45.958;12.492;2022-12-20T09:43:15;3.10;99.90
40374;DHT22;26079;45.958;12.492;2022-12-20T09:45:42;3.10;99.90
40374;DHT22;26079;45.958;12.492;2022-12-20T09:48:16;3.10;99.90
40374;DHT22;26079;45.958;12.492;2022-12-20T09:57:05;3.10;99.90
40374;DHT22;26079;45.958;12.492;2022-12-20T09:59:34;3.20;99.90
40374;DHT22;26079;45.958;12.492;2022-12-20T10:02:11;3.20;99.90
40374;DHT22;26079;45.958;12.492;2022-12-20T10:04:38;3.20;99.90
40374;DHT22;26079;45.958;12.492;2022-12-20T10:15:25;3.30;99.90
40374;DHT22;26079;45.958;12.492;2022-12-20T10:18:17;3.30;99.90
40374;DHT22;26079;45.958;12.492;2022-12-20T10:25:54;3.50;99.90
40374;DHT22;26079;45.958;12.492;2022-12-20T10:28:25;3.60;99.90
40374;DHT22;26079;45.958;12.492;2022-12-20T10:30:52;3.60;99.90
40374;DHT22;26079;45.958;12.492;2022-12-20T10:33:21;3.60;99.90
40374;DHT22;26079;45.958;12.492;2022-12-20T10:35:47;3.70;99.90
40374;DHT22;26079;45.958;12.492;2022-12-20T10:38:15;3.70;99.90
40374;DHT22;26079;45.958;12.492;2022-12-20T10:41:01;3.80;99.90
40374;DHT22;26079;45.958;12.492;2022-12-20T10:43:39;3.90;99.90
40374;DHT22;26079;45.958;12.492;2022-12-20T10:46:07;4.00;99.80
40374;DHT22;26079;45.958;12.492;2022-12-20T10:48:41;4.00;99.90
40374;DHT22;26079;45.958;12.492;2022-12-20T10:53:34;4.10;99.40
40374;DHT22;26079;45.958;12.492;2022-12-20T10:58:42;4.20;98.60
40374;DHT22;26079;45.958;12.492;2022-12-20T11:01:17;4.20;98.80
40374;DHT22;26079;45.958;12.492;2022-12-20T11:03:52;4.30;98.30
40374;DHT22;26079;45.958;12.492;2022-12-20T11:06:20;4.50;95.60
40374;DHT22;26079;45.958;12.492;2022-12-20T11:08:46;4.60;93.90
40374;DHT22;26079;45.958;12.492;2022-12-20T11:11:21;4.80;93.70
40374;DHT22;26079;45.958;12.492;2022-12-20T11:13:48;4.80;92.80
40374;DHT22;26079;45.958;12.492;2022-12-20T11:35:24;5.10;93.30
40374;DHT22;26079;45.958;12.492;2022-12-20T11:38:28;5.20;91.30
40374;DHT22;26079;45.958;12.492;2022-12-20T11:51:48;5.80;90.70
40374;DHT22;26079;45.958;12.492;2022-12-20T11:54:28;6.00;90.70
40374;DHT22;26079;45.958;12.492;2022-12-20T11:57:09;6.00;90.40
40374;DHT22;26079;45.958;12.492;2022-12-20T12:03:00;6.10;90.20
40374;DHT22;26079;45.958;12.492;2022-12-20T12:05:06;6.10;90.40
40374;DHT22;26079;45.958;12.492;2022-12-20T12:07:34;6.10;90.50
40374;DHT22;26079;45.958;12.492;2022-12-20T12:12:42;6.10;90.20
40374;DHT22;26079;45.958;12.492;2022-12-20T12:15:18;6.10;90.20
40374;DHT22;26079;45.958;12.492;2022-12-20T12:17:51;6.10;90.00
40374;DHT22;26079;45.958;12.492;2022-12-20T12:23:25;6.20;91.10
40374;DHT22;26079;45.958;12.492;2022-12-20T12:25:52;6.30;90.90
40374;DHT22;26079;45.958;12.492;2022-12-20T12:28:20;6.20;91.20
40374;DHT22;26079;45.958;12.492;2022-12-20T12:30:52;6.20;91.60
40374;DHT22;26079;45.958;12.492;2022-12-20T12:33:23;6.20;91.60
40374;DHT22;26079;45.958;12.492;2022-12-20T12:35:55;6.30;90.40
40374;DHT22;26079;45.958;12.492;2022-12-20T12:46:43;6.40;89.10
40374;DHT22;26079;45.958;12.492;2022-12-20T12:49:15;6.40;88.60
40374;DHT22;26079;45.958;12.492;2022-12-20T12:51:48;6.40;88.90
40374;DHT22;26079;45.958;12.492;2022-12-20T12:54:21;6.40;89.40
40374;DHT22;26079;45.958;12.492;2022-12-20T12:56:48;6.40;89.20
40374;DHT22;26079;45.958;12.492;2022-12-20T13:04:30;6.40;89.10
40374;DHT22;26079;45.958;12.492;2022-12-20T13:07:03;6.40;89.00
40374;DHT22;26079;45.958;12.492;2022-12-20T13:09:47;6.40;89.80
40374;DHT22;26079;45.958;12.492;2022-12-20T13:15:02;6.40;90.20
40374;DHT22;26079;45.958;12.492;2022-12-20T13:19:55;6.40;89.90
40374;DHT22;26079;45.958;12.492;2022-12-20T13:22:25;6.40;90.10
40374;DHT22;26079;45.958;12.492;2022-12-20T13:24:57;6.40;90.30
40374;DHT22;26079;45.958;12.492;2022-12-20T13:27:28;6.30;91.20
40374;DHT22;26079;45.958;12.492;2022-12-20T13:38:01;6.30;92.20
40374;DHT22;26079;45.958;12.492;2022-12-20T13:41:18;6.30;92.20
40374;DHT22;26079;45.958;12.492;2022-12-20T13:43:28;6.30;91.70
40374;DHT22;26079;45.958;12.492;2022-12-20T13:51:02;6.50;91.60
40374;DHT22;26079;45.958;12.492;2022-12-20T13:53:28;6.60;91.30
40374;DHT22;26079;45.958;12.492;2022-12-20T13:55:55;6.60;90.70
40374;DHT22;26079;45.958;12.492;2022-12-20T13:58:27;6.70;90.40
40374;DHT22;26079;45.958;12.492;2022-12-20T14:01:05;6.60;90.30
40374;DHT22;26079;45.958;12.492;2022-12-20T14:03:31;6.50;90.80
40374;DHT22;26079;45.958;12.492;2022-12-20T14:06:02;6.40;91.90
40374;DHT22;26079;45.958;12.492;2022-12-20T14:08:41;6.30;92.20
40374;DHT22;26079;45.958;12.492;2022-12-20T14:11:12;6.20;92.80
40374;DHT22;26079;45.958;12.492;2022-12-20T14:13:39;6.10;93.40
40374;DHT22;26079;45.958;12.492;2022-12-20T14:16:18;6.00;93.90
40374;DHT22;26079;45.958;12.492;2022-12-20T14:19:13;5.90;94.00
40374;DHT22;26079;45.958;12.492;2022-12-20T14:21:42;5.90;93.60
40374;DHT22;26079;45.958;12.492;2022-12-20T14:24:16;5.80;94.80
40374;DHT22;26079;45.958;12.492;2022-12-20T14:26:46;5.60;94.80
40374;DHT22;26079;45.958;12.492;2022-12-20T14:29:27;5.60;94.70
40374;DHT22;26079;45.958;12.492;2022-12-20T14:31:54;5.60;95.80
40374;DHT22;26079;45.958;12.492;2022-12-20T14:34:24;5.60;96.00
40374;DHT22;26079;45.958;12.492;2022-12-20T14:36:50;5.60;96.30
40374;DHT22;26079;45.958;12.492;2022-12-20T14:39:29;5.50;96.20
40374;DHT22;26079;45.958;12.492;2022-12-20T14:44:34;5.20;97.80
40374;DHT22;26079;45.958;12.492;2022-12-20T14:47:04;5.10;97.50
40374;DHT22;26079;45.958;12.492;2022-12-20T14:49:38;5.10;97.20
40374;DHT22;26079;45.958;12.492;2022-12-20T14:55:05;4.90;98.00
40374;DHT22;26079;45.958;12.492;2022-12-20T15:10:40;4.50;99.30
40374;DHT22;26079;45.958;12.492;2022-12-20T15:13:11;4.30;99.90
40374;DHT22;26079;45.958;12.492;2022-12-20T15:15:38;4.20;99.90
40374;DHT22;26079;45.958;12.492;2022-12-20T15:18:15;4.10;99.90
40374;DHT22;26079;45.958;12.492;2022-12-20T15:20:42;4.00;99.90
40374;DHT22;26079;45.958;12.492;2022-12-20T15:23:14;3.90;99.90
40374;DHT22;26079;45.958;12.492;2022-12-20T15:25:40;3.90;99.90
40374;DHT22;26079;45.958;12.492;2022-12-20T15:28:17;3.80;99.90
40374;DHT22;26079;45.958;12.492;2022-12-20T15:30:44;3.80;99.90
40374;DHT22;26079;45.958;12.492;2022-12-20T15:33:19;3.80;99.90
40374;DHT22;26079;45.958;12.492;2022-12-20T15:35:46;3.80;99.90
40374;DHT22;26079;45.958;12.492;2022-12-20T15:38:14;3.70;99.90
40374;DHT22;26079;45.958;12.492;2022-12-20T15:40:42;3.60;99.90
40374;DHT22;26079;45.958;12.492;2022-12-20T15:43:19;3.60;99.90
40374;DHT22;26079;45.958;12.492;2022-12-20T15:45:48;3.60;99.90
40374;DHT22;26079;45.958;12.492;2022-12-20T15:48:17;3.60;99.90
40374;DHT22;26079;45.958;12.492;2022-12-20T15:50:47;3.50;99.90
40374;DHT22;26079;45.958;12.492;2022-12-20T15:53:16;3.40;99.90
40374;DHT22;26079;45.958;12.492;2022-12-20T15:55:42;3.30;99.90
40374;DHT22;26079;45.958;12.492;2022-12-20T15:58:08;3.20;99.90
40374;DHT22;26079;45.958;12.492;2022-12-20T16:00:38;3.10;99.90
40374;DHT22;26079;45.958;12.492;2022-12-20T16:03:11;3.10;99.90
40374;DHT22;26079;45.958;12.492;2022-12-20T16:05:38;3.10;99.90
40374;DHT22;26079;45.958;12.492;2022-12-20T16:08:04;3.00;99.90
40374;DHT22;26079;45.958;12.492;2022-12-20T16:10:30;3.00;99.90
40374;DHT22;26079;45.958;12.492;2022-12-20T16:12:56;2.90;99.90
40374;DHT22;26079;45.958;12.492;2022-12-20T16:15:22;2.90;99.90
40374;DHT22;26079;45.958;12.492;2022-12-20T16:17:48;2.80;99.90
40374;DHT22;26079;45.958;12.492;2022-12-20T16:20:13;2.80;99.90
40374;DHT22;26079;45.958;12.492;2022-12-20T16:22:39;2.70;99.90
40374;DHT22;26079;45.958;12.492;2022-12-20T16:25:05;2.70;99.90
40374;DHT22;26079;45.958;12.492;2022-12-20T16:27:31;2.60;99.90
40374;DHT22;26079;45.958;12.492;2022-12-20T16:29:56;2.50;99.90
40374;DHT22;26079;45.958;12.492;2022-12-20T16:32:22;2.50;99.90
40374;DHT22;26079;45.958;12.492;2022-12-20T16:34:49;2.50;99.90
40374;DHT22;26079;45.958;12.492;2022-12-20T16:37:15;2.50;99.90
40374;DHT22;26079;45.958;12.492;2022-12-20T16:39:41;2.40;99.90
40374;DHT22;26079;45.958;12.492;2022-12-20T16:42:14;2.40;99.90
40374;DHT22;26079;45.958;12.492;2022-12-20T16:44:40;2.30;99.90
40374;DHT22;26079;45.958;12.492;2022-12-20T16:47:09;2.30;99.90
40374;DHT22;26079;45.958;12.492;2022-12-20T16:49:34;2.20;99.90
40374;DHT22;26079;45.958;12.492;2022-12-20T16:52:02;2.20;99.90
40374;DHT22;26079;45.958;12.492;2022-12-20T16:54:28;2.20;99.90
40374;DHT22;26079;45.958;12.492;2022-12-20T16:56:54;2.10;99.90
40374;DHT22;26079;45.958;12.492;2022-12-20T16:59:22;2.00;99.90
40374;DHT22;26079;45.958;12.492;2022-12-20T17:01:48;2.00;99.90
40374;DHT22;26079;45.958;12.492;2022-12-20T17:04:17;2.10;99.90
40374;DHT22;26079;45.958;12.492;2022-12-20T17:06:44;2.10;99.90
40374;DHT22;26079;45.958;12.492;2022-12-20T17:09:10;2.10;99.90
40374;DHT22;26079;45.958;12.492;2022-12-20T17:11:36;2.10;99.90
40374;DHT22;26079;45.958;12.492;2022-12-20T17:14:02;2.10;99.90
40374;DHT22;26079;45.958;12.492;2022-12-20T17:16:28;2.10;99.90
40374;DHT22;26079;45.958;12.492;2022-12-20T17:18:55;2.10;99.90
40374;DHT22;26079;45.958;12.492;2022-12-20T17:21:44;2.10;99.90
40374;DHT22;26079;45.958;12.492;2022-12-20T17:24:19;2.10;99.90
40374;DHT22;26079;45.958;12.492;2022-12-20T17:26:45;2.10;99.90
40374;DHT22;26079;45.958;12.492;2022-12-20T17:29:11;2.10;99.90
40374;DHT22;26079;45.958;12.492;2022-12-20T17:31:39;2.10;99.90
40374;DHT22;26079;45.958;12.492;2022-12-20T17:34:25;2.10;99.90
40374;DHT22;26079;45.958;12.492;2022-12-20T17:36:53;2.10;99.90
40374;DHT22;26079;45.958;12.492;2022-12-20T17:39:21;2.10;99.90
40374;DHT22;26079;45.958;12.492;2022-12-20T17:41:47;2.00;99.90
40374;DHT22;26079;45.958;12.492;2022-12-20T17:44:21;2.00;99.90
40374;DHT22;26079;45.958;12.492;2022-12-20T17:46:48;2.00;99.90